Terminal Aerodrome Forecast
Issued by NWS

Home | Current Version | Previous Version | Text Only | Print | Product List | Glossary On
Versions: 1 2 3 4 5 6 7 8 9 10 11 12 13 14 15 16 17 18 19
867
FTUS41 KBTV 200536
TAFMPV
TAF
KMPV 200536Z 2006/2106 30015KT 4SM -SN BR OVC025
      TEMPO 2006/2008 6SM -SN BR OVC035
     FM200800 30013KT P6SM OVC025
     FM201900 32013G19KT P6SM OVC035
     FM210000 31010KT P6SM VCSH BKN035
     FM210200 30009KT P6SM BKN035=

USA.gov is the U.S. government's official web portal to all federal, state and local government web resources and services.